sensor_id;sensor_type;location;lat;lon;timestamp;pressure;altitude;pressure_sealevel;temperature;humidity
26978;BME280;56314;48.088;11.642;2023-07-22T00:01:05;95428.19;;;15.21;98.98
26978;BME280;56314;48.088;11.642;2023-07-22T00:03:30;95432.09;;;15.17;98.52
26978;BME280;56314;48.088;11.642;2023-07-22T00:06:03;95427.41;;;15.11;98.86
26978;BME280;56314;48.088;11.642;2023-07-22T00:08:29;95434.22;;;15.14;99.09
26978;BME280;56314;48.088;11.642;2023-07-22T00:10:54;95442.59;;;15.09;98.82
26978;BME280;56314;48.088;11.642;2023-07-22T00:13:19;95435.38;;;15.01;98.64
26978;BME280;56314;48.088;11.642;2023-07-22T00:15:45;95441.81;;;14.89;99.17
26978;BME280;56314;48.088;11.642;2023-07-22T00:18:10;95447.53;;;14.94;99.52
26978;BME280;56314;48.088;11.642;2023-07-22T00:20:35;95442.38;;;14.92;98.79
26978;BME280;56314;48.088;11.642;2023-07-22T00:23:01;95442.94;;;14.96;99.30
26978;BME280;56314;48.088;11.642;2023-07-22T00:25:26;95439.72;;;14.92;98.90
26978;BME280;56314;48.088;11.642;2023-07-22T00:27:52;95432.09;;;14.89;99.20
26978;BME280;56314;48.088;11.642;2023-07-22T00:30:17;95426.81;;;14.89;99.29
26978;BME280;56314;48.088;11.642;2023-07-22T00:32:43;95435.03;;;14.86;99.76
26978;BME280;56314;48.088;11.642;2023-07-22T00:35:08;95435.19;;;14.85;99.97
26978;BME280;56314;48.088;11.642;2023-07-22T00:37:35;95432.28;;;14.78;100.00
26978;BME280;56314;48.088;11.642;2023-07-22T00:40:01;95432.41;;;14.76;100.00
26978;BME280;56314;48.088;11.642;2023-07-22T00:42:28;95431.03;;;14.72;100.00
26978;BME280;56314;48.088;11.642;2023-07-22T00:44:53;95427.66;;;14.80;100.00
26978;BME280;56314;48.088;11.642;2023-07-22T00:47:19;95409.72;;;14.84;100.00
26978;BME280;56314;48.088;11.642;2023-07-22T00:49:47;95415.44;;;14.79;100.00
26978;BME280;56314;48.088;11.642;2023-07-22T00:52:13;95413.34;;;14.83;100.00
26978;BME280;56314;48.088;11.642;2023-07-22T00:54:38;95417.81;;;14.72;100.00
26978;BME280;56314;48.088;11.642;2023-07-22T00:57:03;95410.03;;;14.71;100.00
26978;BME280;56314;48.088;11.642;2023-07-22T00:59:30;95416.81;;;14.73;100.00
26978;BME280;56314;48.088;11.642;2023-07-22T01:01:55;95411.66;;;14.82;100.00
26978;BME280;56314;48.088;11.642;2023-07-22T01:04:20;95411.00;;;14.70;100.00
26978;BME280;56314;48.088;11.642;2023-07-22T01:06:48;95400.00;;;14.65;100.00
26978;BME280;56314;48.088;11.642;2023-07-22T01:09:14;95394.03;;;14.62;100.00
26978;BME280;56314;48.088;11.642;2023-07-22T01:11:39;95398.47;;;14.62;100.00
26978;BME280;56314;48.088;11.642;2023-07-22T01:14:05;95405.56;;;14.61;100.00
26978;BME280;56314;48.088;11.642;2023-07-22T01:16:30;95400.13;;;14.63;100.00
26978;BME280;56314;48.088;11.642;2023-07-22T01:18:56;95406.84;;;14.67;100.00
26978;BME280;56314;48.088;11.642;2023-07-22T01:21:25;95392.34;;;14.61;100.00
26978;BME280;56314;48.088;11.642;2023-07-22T01:23:51;95395.16;;;14.60;100.00
26978;BME280;56314;48.088;11.642;2023-07-22T01:26:17;95400.81;;;14.65;100.00
26978;BME280;56314;48.088;11.642;2023-07-22T01:28:43;95401.09;;;14.62;100.00
26978;BME280;56314;48.088;11.642;2023-07-22T01:31:08;95405.72;;;14.60;100.00
26978;BME280;56314;48.088;11.642;2023-07-22T01:33:34;95408.09;;;14.53;100.00
26978;BME280;56314;48.088;11.642;2023-07-22T01:36:00;95413.13;;;14.46;100.00
26978;BME280;56314;48.088;11.642;2023-07-22T01:38:25;95409.94;;;14.43;100.00
26978;BME280;56314;48.088;11.642;2023-07-22T01:40:51;95410.75;;;14.43;100.00
26978;BME280;56314;48.088;11.642;2023-07-22T01:43:16;95402.41;;;14.48;100.00
26978;BME280;56314;48.088;11.642;2023-07-22T01:45:41;95397.97;;;14.49;100.00
26978;BME280;56314;48.088;11.642;2023-07-22T01:48:07;95407.13;;;14.44;100.00
26978;BME280;56314;48.088;11.642;2023-07-22T01:50:33;95405.75;;;14.50;100.00
26978;BME280;56314;48.088;11.642;2023-07-22T01:52:58;95406.88;;;14.47;100.00
26978;BME280;56314;48.088;11.642;2023-07-22T01:55:24;95406.00;;;14.47;100.00
26978;BME280;56314;48.088;11.642;2023-07-22T01:57:49;95403.91;;;14.51;100.00
26978;BME280;56314;48.088;11.642;2023-07-22T02:00:15;95417.38;;;14.57;100.00
26978;BME280;56314;48.088;11.642;2023-07-22T02:02:41;95409.88;;;14.62;100.00
26978;BME280;56314;48.088;11.642;2023-07-22T02:05:07;95410.88;;;14.71;100.00
26978;BME280;56314;48.088;11.642;2023-07-22T02:07:33;95409.91;;;14.72;100.00
26978;BME280;56314;48.088;11.642;2023-07-22T02:09:59;95402.63;;;14.74;100.00
26978;BME280;56314;48.088;11.642;2023-07-22T02:12:24;95419.34;;;14.75;100.00
26978;BME280;56314;48.088;11.642;2023-07-22T02:14:49;95417.81;;;14.72;100.00
26978;BME280;56314;48.088;11.642;2023-07-22T02:17:15;95415.84;;;14.74;100.00
26978;BME280;56314;48.088;11.642;2023-07-22T02:19:40;95418.22;;;14.68;100.00
26978;BME280;56314;48.088;11.642;2023-07-22T02:22:06;95421.16;;;14.65;100.00
26978;BME280;56314;48.088;11.642;2023-07-22T02:24:31;95419.47;;;14.63;100.00
26978;BME280;56314;48.088;11.642;2023-07-22T02:26:57;95417.28;;;14.59;100.00
26978;BME280;56314;48.088;11.642;2023-07-22T02:29:22;95417.69;;;14.54;100.00
26978;BME280;56314;48.088;11.642;2023-07-22T02:31:47;95419.91;;;14.49;100.00
26978;BME280;56314;48.088;11.642;2023-07-22T02:34:13;95417.97;;;14.41;100.00
26978;BME280;56314;48.088;11.642;2023-07-22T02:36:38;95409.25;;;14.41;100.00
26978;BME280;56314;48.088;11.642;2023-07-22T02:39:03;95416.75;;;14.36;100.00
26978;BME280;56314;48.088;11.642;2023-07-22T02:41:29;95417.75;;;14.25;100.00
26978;BME280;56314;48.088;11.642;2023-07-22T02:43:54;95410.50;;;14.27;100.00
26978;BME280;56314;48.088;11.642;2023-07-22T02:46:19;95418.00;;;14.31;100.00
26978;BME280;56314;48.088;11.642;2023-07-22T02:48:45;95412.31;;;14.36;100.00
26978;BME280;56314;48.088;11.642;2023-07-22T02:51:10;95424.41;;;14.39;100.00
26978;BME280;56314;48.088;11.642;2023-07-22T02:53:36;95420.09;;;14.38;100.00
26978;BME280;56314;48.088;11.642;2023-07-22T02:56:02;95420.78;;;14.40;100.00
26978;BME280;56314;48.088;11.642;2023-07-22T02:58:28;95425.78;;;14.43;100.00
26978;BME280;56314;48.088;11.642;2023-07-22T03:00:53;95421.16;;;14.45;100.00
26978;BME280;56314;48.088;11.642;2023-07-22T03:03:19;95417.28;;;14.39;100.00
26978;BME280;56314;48.088;11.642;2023-07-22T03:05:45;95422.44;;;14.41;100.00
26978;BME280;56314;48.088;11.642;2023-07-22T03:08:10;95430.75;;;14.46;100.00
26978;BME280;56314;48.088;11.642;2023-07-22T03:10:36;95428.00;;;14.47;100.00
26978;BME280;56314;48.088;11.642;2023-07-22T03:13:01;95425.53;;;14.36;100.00
26978;BME280;56314;48.088;11.642;2023-07-22T03:15:29;95422.03;;;14.26;100.00
26978;BME280;56314;48.088;11.642;2023-07-22T03:17:55;95426.75;;;14.22;100.00
26978;BME280;56314;48.088;11.642;2023-07-22T03:20:25;95436.22;;;14.15;100.00
26978;BME280;56314;48.088;11.642;2023-07-22T03:22:51;95422.06;;;14.16;100.00
26978;BME280;56314;48.088;11.642;2023-07-22T03:25:17;95427.75;;;14.11;100.00
26978;BME280;56314;48.088;11.642;2023-07-22T03:27:43;95431.66;;;14.17;100.00
26978;BME280;56314;48.088;11.642;2023-07-22T03:30:12;95428.03;;;14.18;100.00
26978;BME280;56314;48.088;11.642;2023-07-22T03:32:41;95423.28;;;14.02;100.00
26978;BME280;56314;48.088;11.642;2023-07-22T03:35:08;95423.59;;;13.99;100.00
26978;BME280;56314;48.088;11.642;2023-07-22T03:37:34;95424.56;;;13.98;100.00
26978;BME280;56314;48.088;11.642;2023-07-22T03:40:02;95437.75;;;13.98;100.00
26978;BME280;56314;48.088;11.642;2023-07-22T03:42:27;95438.84;;;13.95;100.00
26978;BME280;56314;48.088;11.642;2023-07-22T03:44:53;95430.25;;;13.93;100.00
26978;BME280;56314;48.088;11.642;2023-07-22T03:47:19;95441.38;;;13.97;100.00
26978;BME280;56314;48.088;11.642;2023-07-22T03:49:44;95444.13;;;13.95;100.00
26978;BME280;56314;48.088;11.642;2023-07-22T03:52:10;95444.84;;;13.97;100.00
26978;BME280;56314;48.088;11.642;2023-07-22T03:54:39;95440.94;;;13.92;100.00
26978;BME280;56314;48.088;11.642;2023-07-22T03:57:04;95434.00;;;13.81;100.00
26978;BME280;56314;48.088;11.642;2023-07-22T03:59:30;95440.25;;;13.80;100.00
26978;BME280;56314;48.088;11.642;2023-07-22T04:01:55;95440.25;;;13.80;100.00
26978;BME280;56314;48.088;11.642;2023-07-22T04:04:20;95438.97;;;13.84;100.00
26978;BME280;56314;48.088;11.642;2023-07-22T04:06:46;95444.53;;;13.91;100.00
26978;BME280;56314;48.088;11.642;2023-07-22T04:09:11;95441.34;;;13.87;100.00
26978;BME280;56314;48.088;11.642;2023-07-22T04:11:36;95443.19;;;13.87;100.00
26978;BME280;56314;48.088;11.642;2023-07-22T04:14:02;95441.09;;;13.90;100.00
26978;BME280;56314;48.088;11.642;2023-07-22T04:16:27;95449.03;;;14.00;100.00
26978;BME280;56314;48.088;11.642;2023-07-22T04:18:52;95454.69;;;14.05;100.00
26978;BME280;56314;48.088;11.642;2023-07-22T04:21:18;95458.59;;;14.11;100.00
26978;BME280;56314;48.088;11.642;2023-07-22T04:23:44;95463.88;;;14.21;100.00
26978;BME280;56314;48.088;11.642;2023-07-22T04:26:09;95459.44;;;14.21;100.00
26978;BME280;56314;48.088;11.642;2023-07-22T04:28:34;95459.44;;;14.31;100.00
26978;BME280;56314;48.088;11.642;2023-07-22T04:31:00;95452.91;;;14.35;100.00
26978;BME280;56314;48.088;11.642;2023-07-22T04:33:26;95462.78;;;14.43;100.00
26978;BME280;56314;48.088;11.642;2023-07-22T04:35:57;95449.25;;;14.56;100.00
26978;BME280;56314;48.088;11.642;2023-07-22T04:38:23;95454.97;;;14.61;100.00
26978;BME280;56314;48.088;11.642;2023-07-22T04:40:48;95450.22;;;14.65;100.00
26978;BME280;56314;48.088;11.642;2023-07-22T04:43:13;95447.44;;;14.76;100.00
26978;BME280;56314;48.088;11.642;2023-07-22T04:45:39;95439.78;;;14.83;100.00
26978;BME280;56314;48.088;11.642;2023-07-22T04:48:07;95440.28;;;14.96;100.00
26978;BME280;56314;48.088;11.642;2023-07-22T04:50:33;95446.81;;;15.02;98.48
26978;BME280;56314;48.088;11.642;2023-07-22T04:52:58;95453.19;;;14.99;99.24
26978;BME280;56314;48.088;11.642;2023-07-22T04:55:24;95455.84;;;14.99;100.00
26978;BME280;56314;48.088;11.642;2023-07-22T04:57:49;95464.34;;;15.03;99.79
26978;BME280;56314;48.088;11.642;2023-07-22T05:00:17;95451.06;;;15.13;100.00
26978;BME280;56314;48.088;11.642;2023-07-22T05:02:45;95454.81;;;15.20;100.00
26978;BME280;56314;48.088;11.642;2023-07-22T05:05:12;95448.59;;;15.39;99.11
26978;BME280;56314;48.088;11.642;2023-07-22T05:07:38;95449.81;;;15.45;97.49
26978;BME280;56314;48.088;11.642;2023-07-22T05:10:03;95439.56;;;15.60;97.47
26978;BME280;56314;48.088;11.642;2023-07-22T05:12:29;95439.88;;;16.21;95.69
26978;BME280;56314;48.088;11.642;2023-07-22T05:14:54;95434.53;;;17.44;88.62
26978;BME280;56314;48.088;11.642;2023-07-22T05:17:19;95438.22;;;18.36;82.04
26978;BME280;56314;48.088;11.642;2023-07-22T05:19:44;95434.38;;;18.46;79.44
26978;BME280;56314;48.088;11.642;2023-07-22T05:22:10;95439.88;;;18.04;79.86
26978;BME280;56314;48.088;11.642;2023-07-22T05:24:35;95456.34;;;17.73;82.37
26978;BME280;56314;48.088;11.642;2023-07-22T05:27:00;95451.59;;;17.42;85.54
26978;BME280;56314;48.088;11.642;2023-07-22T05:29:26;95455.91;;;17.08;85.87
26978;BME280;56314;48.088;11.642;2023-07-22T05:31:51;95454.28;;;16.89;87.74
26978;BME280;56314;48.088;11.642;2023-07-22T05:34:16;95452.88;;;16.76;89.24
26978;BME280;56314;48.088;11.642;2023-07-22T05:36:42;95447.53;;;16.68;90.41
26978;BME280;56314;48.088;11.642;2023-07-22T05:39:07;95451.75;;;16.61;91.22
26978;BME280;56314;48.088;11.642;2023-07-22T05:41:33;95452.09;;;16.58;92.71
26978;BME280;56314;48.088;11.642;2023-07-22T05:43:59;95452.91;;;16.58;92.52
26978;BME280;56314;48.088;11.642;2023-07-22T05:46:24;95459.41;;;16.64;92.27
26978;BME280;56314;48.088;11.642;2023-07-22T05:48:50;95460.84;;;16.58;91.73
26978;BME280;56314;48.088;11.642;2023-07-22T05:51:15;95463.69;;;16.57;91.41
26978;BME280;56314;48.088;11.642;2023-07-22T05:53:40;95458.03;;;16.60;90.77
26978;BME280;56314;48.088;11.642;2023-07-22T05:56:06;95458.47;;;16.73;88.30
26978;BME280;56314;48.088;11.642;2023-07-22T05:58:31;95462.38;;;17.91;83.65
26978;BME280;56314;48.088;11.642;2023-07-22T06:00:56;95463.16;;;18.51;78.90
26978;BME280;56314;48.088;11.642;2023-07-22T06:03:22;95452.97;;;18.88;76.16
26978;BME280;56314;48.088;11.642;2023-07-22T06:05:47;95445.31;;;19.18;73.98
26978;BME280;56314;48.088;11.642;2023-07-22T06:08:13;95449.41;;;19.29;73.20
26978;BME280;56314;48.088;11.642;2023-07-22T06:10:40;95458.25;;;19.21;74.29
26978;BME280;56314;48.088;11.642;2023-07-22T06:13:06;95461.88;;;19.36;73.32
26978;BME280;56314;48.088;11.642;2023-07-22T06:15:31;95460.84;;;19.46;73.46
26978;BME280;56314;48.088;11.642;2023-07-22T06:17:57;95463.97;;;19.58;70.20
26978;BME280;56314;48.088;11.642;2023-07-22T06:20:22;95461.78;;;20.71;67.41
26978;BME280;56314;48.088;11.642;2023-07-22T06:22:48;95461.69;;;21.17;63.44
26978;BME280;56314;48.088;11.642;2023-07-22T06:25:13;95469.97;;;21.07;63.03
26978;BME280;56314;48.088;11.642;2023-07-22T06:27:38;95450.88;;;22.01;60.37
26978;BME280;56314;48.088;11.642;2023-07-22T06:30:04;95457.34;;;23.28;56.47
26978;BME280;56314;48.088;11.642;2023-07-22T06:32:30;95454.53;;;24.60;51.62
26978;BME280;56314;48.088;11.642;2023-07-22T06:34:57;95461.00;;;24.80;49.14
26978;BME280;56314;48.088;11.642;2023-07-22T06:37:23;95458.28;;;24.53;49.98
26978;BME280;56314;48.088;11.642;2023-07-22T06:39:49;95453.56;;;25.02;49.68
26978;BME280;56314;48.088;11.642;2023-07-22T06:42:14;95453.31;;;25.50;48.83
26978;BME280;56314;48.088;11.642;2023-07-22T06:44:39;95460.97;;;24.53;48.87
26978;BME280;56314;48.088;11.642;2023-07-22T06:47:05;95457.91;;;23.52;50.83
26978;BME280;56314;48.088;11.642;2023-07-22T06:49:31;95461.81;;;22.93;53.25
26978;BME280;56314;48.088;11.642;2023-07-22T06:51:56;95468.44;;;22.10;51.82
26978;BME280;56314;48.088;11.642;2023-07-22T06:54:21;95472.09;;;21.72;53.84
26978;BME280;56314;48.088;11.642;2023-07-22T06:56:47;95469.06;;;22.49;54.92
26978;BME280;56314;48.088;11.642;2023-07-22T06:59:12;95459.06;;;24.47;47.34
26978;BME280;56314;48.088;11.642;2023-07-22T07:01:37;95447.25;;;26.21;44.66
26978;BME280;56314;48.088;11.642;2023-07-22T07:04:03;95447.56;;;26.38;43.41
26978;BME280;56314;48.088;11.642;2023-07-22T07:06:29;95461.16;;;25.32;42.09
26978;BME280;56314;48.088;11.642;2023-07-22T07:08:55;95465.47;;;24.39;44.15
26978;BME280;56314;48.088;11.642;2023-07-22T07:11:20;95467.75;;;23.87;45.45
26978;BME280;56314;48.088;11.642;2023-07-22T07:13:45;95477.16;;;24.18;45.35
26978;BME280;56314;48.088;11.642;2023-07-22T07:16:25;95478.41;;;23.73;44.15
26978;BME280;56314;48.088;11.642;2023-07-22T07:18:51;95482.56;;;23.12;47.45
26978;BME280;56314;48.088;11.642;2023-07-22T07:21:18;95483.97;;;22.58;48.66
26978;BME280;56314;48.088;11.642;2023-07-22T07:23:43;95477.56;;;22.81;49.53
26978;BME280;56314;48.088;11.642;2023-07-22T07:26:09;95473.06;;;23.73;45.92
26978;BME280;56314;48.088;11.642;2023-07-22T07:28:34;95473.78;;;25.04;43.77
26978;BME280;56314;48.088;11.642;2023-07-22T07:30:59;95462.06;;;26.37;39.29
26978;BME280;56314;48.088;11.642;2023-07-22T07:33:25;95471.50;;;26.85;38.35
26978;BME280;56314;48.088;11.642;2023-07-22T07:35:50;95468.81;;;28.10;36.03
26978;BME280;56314;48.088;11.642;2023-07-22T07:38:15;95477.50;;;28.61;34.08
26978;BME280;56314;48.088;11.642;2023-07-22T07:40:41;95478.78;;;29.13;33.60
26978;BME280;56314;48.088;11.642;2023-07-22T07:43:06;95475.22;;;29.00;33.67
26978;BME280;56314;48.088;11.642;2023-07-22T07:45:31;95477.59;;;29.21;32.16
26978;BME280;56314;48.088;11.642;2023-07-22T07:47:56;95475.53;;;29.46;31.83
26978;BME280;56314;48.088;11.642;2023-07-22T07:50:22;95470.16;;;29.87;31.82
26978;BME280;56314;48.088;11.642;2023-07-22T07:52:47;95467.81;;;30.32;31.07
26978;BME280;56314;48.088;11.642;2023-07-22T07:55:13;95478.66;;;29.67;31.24
26978;BME280;56314;48.088;11.642;2023-07-22T07:57:38;95484.59;;;29.40;31.80
26978;BME280;56314;48.088;11.642;2023-07-22T08:00:04;95487.84;;;29.66;32.00
26978;BME280;56314;48.088;11.642;2023-07-22T08:02:30;95489.84;;;29.94;31.04
26978;BME280;56314;48.088;11.642;2023-07-22T08:04:55;95484.25;;;30.25;31.17
26978;BME280;56314;48.088;11.642;2023-07-22T08:07:21;95478.03;;;30.41;30.94
26978;BME280;56314;48.088;11.642;2023-07-22T08:09:47;95478.13;;;30.18;29.87
26978;BME280;56314;48.088;11.642;2023-07-22T08:12:16;95485.56;;;30.39;30.40
26978;BME280;56314;48.088;11.642;2023-07-22T08:14:41;95482.00;;;30.22;31.11
26978;BME280;56314;48.088;11.642;2023-07-22T08:17:07;95475.56;;;30.40;30.38
26978;BME280;56314;48.088;11.642;2023-07-22T08:19:32;95478.44;;;30.33;30.93
26978;BME280;56314;48.088;11.642;2023-07-22T08:21:57;95479.66;;;30.54;30.09
26978;BME280;56314;48.088;11.642;2023-07-22T08:24:23;95483.03;;;30.62;29.02
26978;BME280;56314;48.088;11.642;2023-07-22T08:26:48;95484.56;;;30.58;30.69
26978;BME280;56314;48.088;11.642;2023-07-22T08:29:13;95486.47;;;30.57;30.14
26978;BME280;56314;48.088;11.642;2023-07-22T08:31:39;95478.97;;;30.76;28.64
26978;BME280;56314;48.088;11.642;2023-07-22T08:34:05;95481.69;;;30.93;29.48
26978;BME280;56314;48.088;11.642;2023-07-22T08:36:30;95480.38;;;31.30;29.66
26978;BME280;56314;48.088;11.642;2023-07-22T08:38:55;95482.38;;;31.17;29.49
26978;BME280;56314;48.088;11.642;2023-07-22T08:41:21;95479.59;;;31.12;29.45
26978;BME280;56314;48.088;11.642;2023-07-22T08:43:48;95476.31;;;30.81;28.65
26978;BME280;56314;48.088;11.642;2023-07-22T08:46:15;95481.59;;;30.88;27.59
26978;BME280;56314;48.088;11.642;2023-07-22T08:48:43;95485.66;;;30.56;28.87
26978;BME280;56314;48.088;11.642;2023-07-22T08:51:15;95481.94;;;30.34;28.78
26978;BME280;56314;48.088;11.642;2023-07-22T08:53:43;95478.47;;;30.50;28.70
26978;BME280;56314;48.088;11.642;2023-07-22T08:56:08;95478.91;;;30.30;28.03
26978;BME280;56314;48.088;11.642;2023-07-22T08:58:35;95484.56;;;30.58;27.88
26978;BME280;56314;48.088;11.642;2023-07-22T09:01:02;95482.41;;;30.02;30.94
26978;BME280;56314;48.088;11.642;2023-07-22T09:03:27;95484.47;;;29.35;28.52
26978;BME280;56314;48.088;11.642;2023-07-22T09:05:53;95480.19;;;29.99;28.46
26978;BME280;56314;48.088;11.642;2023-07-22T09:08:19;95486.19;;;30.01;28.05
26978;BME280;56314;48.088;11.642;2023-07-22T09:10:44;95477.59;;;30.33;28.69
26978;BME280;56314;48.088;11.642;2023-07-22T09:13:11;95472.69;;;30.59;28.92
26978;BME280;56314;48.088;11.642;2023-07-22T09:15:37;95472.06;;;30.68;28.94
26978;BME280;56314;48.088;11.642;2023-07-22T09:18:03;95476.00;;;30.78;27.06
26978;BME280;56314;48.088;11.642;2023-07-22T09:20:30;95474.16;;;30.37;27.74
26978;BME280;56314;48.088;11.642;2023-07-22T09:22:55;95465.91;;;30.03;29.47
26978;BME280;56314;48.088;11.642;2023-07-22T09:25:25;95468.72;;;30.37;28.97
26978;BME280;56314;48.088;11.642;2023-07-22T09:27:54;95464.41;;;30.36;28.97
26978;BME280;56314;48.088;11.642;2023-07-22T09:30:23;95466.53;;;30.63;28.09
26978;BME280;56314;48.088;11.642;2023-07-22T09:32:50;95455.25;;;31.17;27.65
26978;BME280;56314;48.088;11.642;2023-07-22T09:35:16;95453.31;;;31.52;28.37
26978;BME280;56314;48.088;11.642;2023-07-22T09:37:41;95458.06;;;31.62;26.44
26978;BME280;56314;48.088;11.642;2023-07-22T09:40:23;95450.31;;;31.71;27.13
26978;BME280;56314;48.088;11.642;2023-07-22T09:42:53;95455.31;;;30.71;27.64
26978;BME280;56314;48.088;11.642;2023-07-22T09:45:21;95457.03;;;30.95;28.71
26978;BME280;56314;48.088;11.642;2023-07-22T09:47:48;95455.78;;;30.39;28.28
26978;BME280;56314;48.088;11.642;2023-07-22T09:50:19;95461.47;;;29.85;28.85
26978;BME280;56314;48.088;11.642;2023-07-22T09:55:19;95460.78;;;29.18;28.20
26978;BME280;56314;48.088;11.642;2023-07-22T09:57:53;95451.75;;;29.72;26.77
26978;BME280;56314;48.088;11.642;2023-07-22T10:00:20;95443.53;;;30.37;26.32
26978;BME280;56314;48.088;11.642;2023-07-22T10:02:48;95450.38;;;30.68;25.71
26978;BME280;56314;48.088;11.642;2023-07-22T10:05:18;95452.78;;;30.53;25.70
26978;BME280;56314;48.088;11.642;2023-07-22T10:07:46;95450.28;;;30.63;26.11
26978;BME280;56314;48.088;11.642;2023-07-22T10:10:13;95450.41;;;30.56;27.35
26978;BME280;56314;48.088;11.642;2023-07-22T10:12:41;95444.06;;;30.51;27.28
26978;BME280;56314;48.088;11.642;2023-07-22T10:15:09;95445.72;;;30.52;25.96
26978;BME280;56314;48.088;11.642;2023-07-22T10:17:35;95444.47;;;30.14;26.64
26978;BME280;56314;48.088;11.642;2023-07-22T10:20:02;95442.22;;;30.39;26.42
26978;BME280;56314;48.088;11.642;2023-07-22T10:22:34;95438.72;;;30.10;27.62
26978;BME280;56314;48.088;11.642;2023-07-22T10:25:01;95445.97;;;30.21;25.39
26978;BME280;56314;48.088;11.642;2023-07-22T10:27:30;95430.97;;;30.94;25.87
26978;BME280;56314;48.088;11.642;2023-07-22T10:29:56;95437.94;;;30.55;26.59
26978;BME280;56314;48.088;11.642;2023-07-22T10:32:21;95438.63;;;30.63;25.59
26978;BME280;56314;48.088;11.642;2023-07-22T10:34:46;95432.63;;;30.78;25.23
26978;BME280;56314;48.088;11.642;2023-07-22T10:37:12;95439.44;;;30.97;25.34
26978;BME280;56314;48.088;11.642;2023-07-22T10:39:37;95430.66;;;30.73;25.49
26978;BME280;56314;48.088;11.642;2023-07-22T10:42:03;95427.22;;;30.78;26.84
26978;BME280;56314;48.088;11.642;2023-07-22T10:44:33;95437.72;;;30.45;27.47
26978;BME280;56314;48.088;11.642;2023-07-22T10:47:00;95434.84;;;30.35;25.06
26978;BME280;56314;48.088;11.642;2023-07-22T10:49:29;95427.69;;;30.29;25.18
26978;BME280;56314;48.088;11.642;2023-07-22T10:52:07;95428.25;;;29.90;26.38
26978;BME280;56314;48.088;11.642;2023-07-22T10:54:34;95426.69;;;30.18;25.47
26978;BME280;56314;48.088;11.642;2023-07-22T10:57:22;95417.81;;;30.22;26.24
26978;BME280;56314;48.088;11.642;2023-07-22T10:59:50;95411.84;;;30.37;26.96
26978;BME280;56314;48.088;11.642;2023-07-22T11:02:34;95409.88;;;30.79;26.57
26978;BME280;56314;48.088;11.642;2023-07-22T11:04:59;95402.88;;;31.34;26.52
26978;BME280;56314;48.088;11.642;2023-07-22T11:07:33;95411.53;;;31.14;26.02
26978;BME280;56314;48.088;11.642;2023-07-22T11:10:10;95402.06;;;31.16;25.63
26978;BME280;56314;48.088;11.642;2023-07-22T11:12:38;95401.97;;;31.28;24.74
26978;BME280;56314;48.088;11.642;2023-07-22T11:15:04;95407.06;;;30.10;27.19
26978;BME280;56314;48.088;11.642;2023-07-22T11:17:32;95401.19;;;29.90;28.26
26978;BME280;56314;48.088;11.642;2023-07-22T11:19:59;95396.28;;;29.87;28.58
26978;BME280;56314;48.088;11.642;2023-07-22T11:22:25;95396.63;;;29.26;28.13
26978;BME280;56314;48.088;11.642;2023-07-22T11:24:52;95394.63;;;28.97;29.25
26978;BME280;56314;48.088;11.642;2023-07-22T11:27:17;95398.22;;;28.67;28.62
26978;BME280;56314;48.088;11.642;2023-07-22T11:29:43;95384.59;;;28.62;29.21
26978;BME280;56314;48.088;11.642;2023-07-22T11:32:15;95382.28;;;29.13;28.20
26978;BME280;56314;48.088;11.642;2023-07-22T11:34:41;95389.81;;;28.87;28.25
26978;BME280;56314;48.088;11.642;2023-07-22T11:37:09;95382.28;;;29.13;27.18
26978;BME280;56314;48.088;11.642;2023-07-22T11:39:35;95372.88;;;29.16;27.75
26978;BME280;56314;48.088;11.642;2023-07-22T11:42:01;95374.06;;;28.96;28.02
26978;BME280;56314;48.088;11.642;2023-07-22T11:44:28;95375.91;;;28.60;28.02
26978;BME280;56314;48.088;11.642;2023-07-22T11:49:27;95379.81;;;28.03;29.05
26978;BME280;56314;48.088;11.642;2023-07-22T11:52:00;95364.22;;;28.05;28.88
26978;BME280;56314;48.088;11.642;2023-07-22T11:54:27;95349.06;;;28.35;28.99
26978;BME280;56314;48.088;11.642;2023-07-22T11:56:53;95362.22;;;28.97;28.60
26978;BME280;56314;48.088;11.642;2023-07-22T11:59:35;95360.25;;;29.57;28.13
26978;BME280;56314;48.088;11.642;2023-07-22T12:02:01;95351.38;;;29.74;26.36
26978;BME280;56314;48.088;11.642;2023-07-22T12:04:29;95343.44;;;29.84;26.51
26978;BME280;56314;48.088;11.642;2023-07-22T12:06:55;95346.28;;;29.77;27.05
26978;BME280;56314;48.088;11.642;2023-07-22T12:09:21;95343.91;;;30.22;27.13
26978;BME280;56314;48.088;11.642;2023-07-22T12:11:46;95338.91;;;30.31;27.12
26978;BME280;56314;48.088;11.642;2023-07-22T12:14:14;95332.41;;;30.32;26.58
26978;BME280;56314;48.088;11.642;2023-07-22T12:16:41;95336.06;;;30.08;25.30
26978;BME280;56314;48.088;11.642;2023-07-22T12:19:09;95323.22;;;30.33;25.69
26978;BME280;56314;48.088;11.642;2023-07-22T12:21:35;95333.50;;;30.31;26.88
26978;BME280;56314;48.088;11.642;2023-07-22T12:24:01;95324.28;;;30.32;25.54
26978;BME280;56314;48.088;11.642;2023-07-22T12:26:28;95317.78;;;30.33;25.20
26978;BME280;56314;48.088;11.642;2023-07-22T12:28:53;95322.88;;;30.29;24.36
26978;BME280;56314;48.088;11.642;2023-07-22T12:31:19;95328.44;;;30.05;26.41
26978;BME280;56314;48.088;11.642;2023-07-22T12:33:44;95323.16;;;29.70;26.75
26978;BME280;56314;48.088;11.642;2023-07-22T12:36:10;95333.09;;;29.52;27.50
26978;BME280;56314;48.088;11.642;2023-07-22T12:38:36;95326.75;;;29.46;26.74
26978;BME280;56314;48.088;11.642;2023-07-22T12:41:01;95329.75;;;29.21;27.14
26978;BME280;56314;48.088;11.642;2023-07-22T12:43:27;95341.13;;;28.64;27.77
26978;BME280;56314;48.088;11.642;2023-07-22T12:45:53;95335.09;;;28.26;28.95